sensor_id;sensor_type;location;lat;lon;timestamp;P1;durP1;ratioP1;P2;durP2;ratioP2
63342;SDS011;49465;57.664;39.686;2023-02-14T00:00:45;3.83;;;1.83;;
63342;SDS011;49465;57.664;39.686;2023-02-14T00:03:19;5.45;;;2.10;;
63342;SDS011;49465;57.664;39.686;2023-02-14T00:05:49;3.72;;;1.98;;
63342;SDS011;49465;57.664;39.686;2023-02-14T00:08:18;4.70;;;2.03;;
63342;SDS011;49465;57.664;39.686;2023-02-14T00:10:46;3.78;;;2.13;;
63342;SDS011;49465;57.664;39.686;2023-02-14T00:13:15;3.28;;;1.90;;
63342;SDS011;49465;57.664;39.686;2023-02-14T00:15:41;4.13;;;1.90;;
63342;SDS011;49465;57.664;39.686;2023-02-14T00:18:13;4.25;;;2.08;;
63342;SDS011;49465;57.664;39.686;2023-02-14T00:20:51;4.93;;;2.10;;
63342;SDS011;49465;57.664;39.686;2023-02-14T00:23:23;3.55;;;1.77;;
63342;SDS011;49465;57.664;39.686;2023-02-14T00:25:49;3.47;;;1.73;;
63342;SDS011;49465;57.664;39.686;2023-02-14T00:28:21;5.28;;;2.00;;
63342;SDS011;49465;57.664;39.686;2023-02-14T00:30:50;4.70;;;1.98;;
63342;SDS011;49465;57.664;39.686;2023-02-14T00:33:39;4.97;;;2.30;;
63342;SDS011;49465;57.664;39.686;2023-02-14T00:36:15;3.30;;;1.90;;
63342;SDS011;49465;57.664;39.686;2023-02-14T00:38:44;5.95;;;2.20;;
63342;SDS011;49465;57.664;39.686;2023-02-14T00:41:18;6.75;;;1.85;;
63342;SDS011;49465;57.664;39.686;2023-02-14T00:43:58;5.00;;;1.75;;
63342;SDS011;49465;57.664;39.686;2023-02-14T00:46:33;4.15;;;1.80;;
63342;SDS011;49465;57.664;39.686;2023-02-14T00:49:08;4.28;;;1.70;;
63342;SDS011;49465;57.664;39.686;2023-02-14T00:51:40;3.85;;;1.60;;
63342;SDS011;49465;57.664;39.686;2023-02-14T00:54:06;4.32;;;2.00;;
63342;SDS011;49465;57.664;39.686;2023-02-14T00:56:41;4.85;;;1.67;;
63342;SDS011;49465;57.664;39.686;2023-02-14T00:59:10;4.78;;;2.00;;
63342;SDS011;49465;57.664;39.686;2023-02-14T01:01:42;3.17;;;1.65;;
63342;SDS011;49465;57.664;39.686;2023-02-14T01:04:24;4.25;;;1.85;;
63342;SDS011;49465;57.664;39.686;2023-02-14T01:06:53;4.65;;;1.88;;
63342;SDS011;49465;57.664;39.686;2023-02-14T01:09:19;4.32;;;1.88;;
63342;SDS011;49465;57.664;39.686;2023-02-14T01:11:51;5.20;;;1.92;;
63342;SDS011;49465;57.664;39.686;2023-02-14T01:14:20;4.85;;;1.60;;
63342;SDS011;49465;57.664;39.686;2023-02-14T01:16:52;4.60;;;1.70;;
63342;SDS011;49465;57.664;39.686;2023-02-14T01:22:41;6.60;;;2.00;;
63342;SDS011;49465;57.664;39.686;2023-02-14T01:25:07;4.13;;;2.00;;
63342;SDS011;49465;57.664;39.686;2023-02-14T01:27:39;5.10;;;1.80;;
63342;SDS011;49465;57.664;39.686;2023-02-14T01:30:08;4.43;;;1.60;;
63342;SDS011;49465;57.664;39.686;2023-02-14T01:32:35;4.13;;;1.52;;
63342;SDS011;49465;57.664;39.686;2023-02-14T01:35:07;3.72;;;1.60;;
63342;SDS011;49465;57.664;39.686;2023-02-14T01:37:34;5.05;;;1.58;;
63342;SDS011;49465;57.664;39.686;2023-02-14T01:40:07;4.15;;;1.60;;
63342;SDS011;49465;57.664;39.686;2023-02-14T01:42:37;4.80;;;2.00;;
63342;SDS011;49465;57.664;39.686;2023-02-14T01:45:08;3.17;;;1.50;;
63342;SDS011;49465;57.664;39.686;2023-02-14T01:47:52;5.50;;;1.50;;
63342;SDS011;49465;57.664;39.686;2023-02-14T01:50:27;3.72;;;1.33;;
63342;SDS011;49465;57.664;39.686;2023-02-14T01:53:07;4.07;;;1.50;;
63342;SDS011;49465;57.664;39.686;2023-02-14T01:55:47;4.85;;;1.52;;
63342;SDS011;49465;57.664;39.686;2023-02-14T01:58:27;3.85;;;1.23;;
63342;SDS011;49465;57.664;39.686;2023-02-14T02:01:03;3.50;;;1.25;;
63342;SDS011;49465;57.664;39.686;2023-02-14T02:03:49;3.88;;;1.40;;
63342;SDS011;49465;57.664;39.686;2023-02-14T02:06:27;4.55;;;1.50;;
63342;SDS011;49465;57.664;39.686;2023-02-14T02:11:37;4.13;;;1.60;;
63342;SDS011;49465;57.664;39.686;2023-02-14T02:14:08;5.75;;;1.50;;
63342;SDS011;49465;57.664;39.686;2023-02-14T02:37:34;4.90;;;1.98;;
63342;SDS011;49465;57.664;39.686;2023-02-14T02:45:40;2.50;;;1.30;;
63342;SDS011;49465;57.664;39.686;2023-02-14T02:48:42;3.65;;;1.60;;
63342;SDS011;49465;57.664;39.686;2023-02-14T02:51:21;6.22;;;1.58;;
63342;SDS011;49465;57.664;39.686;2023-02-14T02:54:27;2.17;;;1.27;;
63342;SDS011;49465;57.664;39.686;2023-02-14T02:57:06;6.40;;;2.30;;
63342;SDS011;49465;57.664;39.686;2023-02-14T02:59:43;5.10;;;1.85;;
63342;SDS011;49465;57.664;39.686;2023-02-14T03:04:53;7.65;;;2.40;;
63342;SDS011;49465;57.664;39.686;2023-02-14T03:15:32;4.57;;;1.60;;
63342;SDS011;49465;57.664;39.686;2023-02-14T03:29:22;4.67;;;1.70;;
63342;SDS011;49465;57.664;39.686;2023-02-14T03:31:58;3.38;;;1.48;;
63342;SDS011;49465;57.664;39.686;2023-02-14T03:37:32;3.85;;;1.45;;
63342;SDS011;49465;57.664;39.686;2023-02-14T03:42:36;4.97;;;1.50;;
63342;SDS011;49465;57.664;39.686;2023-02-14T03:48:08;4.55;;;1.50;;
63342;SDS011;49465;57.664;39.686;2023-02-14T03:50:55;3.72;;;1.40;;
63342;SDS011;49465;57.664;39.686;2023-02-14T03:53:27;5.07;;;1.65;;
63342;SDS011;49465;57.664;39.686;2023-02-14T03:56:17;4.38;;;1.38;;
63342;SDS011;49465;57.664;39.686;2023-02-14T03:59:09;4.25;;;1.30;;
63342;SDS011;49465;57.664;39.686;2023-02-14T04:01:50;4.93;;;1.40;;
63342;SDS011;49465;57.664;39.686;2023-02-14T04:04:27;2.80;;;1.38;;
63342;SDS011;49465;57.664;39.686;2023-02-14T04:07:14;4.65;;;1.48;;
63342;SDS011;49465;57.664;39.686;2023-02-14T04:09:48;4.07;;;1.45;;
63342;SDS011;49465;57.664;39.686;2023-02-14T04:12:17;3.17;;;1.50;;
63342;SDS011;49465;57.664;39.686;2023-02-14T04:14:49;4.35;;;1.65;;
63342;SDS011;49465;57.664;39.686;2023-02-14T04:17:19;3.80;;;1.52;;
63342;SDS011;49465;57.664;39.686;2023-02-14T04:20:07;4.72;;;1.63;;
63342;SDS011;49465;57.664;39.686;2023-02-14T04:22:36;5.53;;;1.40;;
63342;SDS011;49465;57.664;39.686;2023-02-14T04:25:06;2.85;;;1.33;;
63342;SDS011;49465;57.664;39.686;2023-02-14T04:27:40;3.65;;;1.50;;
63342;SDS011;49465;57.664;39.686;2023-02-14T04:30:12;4.00;;;1.60;;
63342;SDS011;49465;57.664;39.686;2023-02-14T04:32:45;3.50;;;1.42;;
63342;SDS011;49465;57.664;39.686;2023-02-14T04:35:16;5.95;;;1.70;;
63342;SDS011;49465;57.664;39.686;2023-02-14T04:37:57;3.53;;;1.40;;
63342;SDS011;49465;57.664;39.686;2023-02-14T04:40:27;3.85;;;1.60;;
63342;SDS011;49465;57.664;39.686;2023-02-14T04:42:56;3.72;;;1.40;;
63342;SDS011;49465;57.664;39.686;2023-02-14T04:45:29;4.90;;;1.60;;
63342;SDS011;49465;57.664;39.686;2023-02-14T04:47:58;3.70;;;1.65;;
63342;SDS011;49465;57.664;39.686;2023-02-14T04:50:27;5.65;;;1.60;;
63342;SDS011;49465;57.664;39.686;2023-02-14T04:52:59;3.42;;;1.58;;
63342;SDS011;49465;57.664;39.686;2023-02-14T04:55:31;3.22;;;1.63;;
63342;SDS011;49465;57.664;39.686;2023-02-14T04:58:06;3.35;;;1.67;;
63342;SDS011;49465;57.664;39.686;2023-02-14T05:00:38;4.60;;;1.65;;
63342;SDS011;49465;57.664;39.686;2023-02-14T05:03:07;3.72;;;1.60;;
63342;SDS011;49465;57.664;39.686;2023-02-14T05:05:36;5.28;;;1.70;;
63342;SDS011;49465;57.664;39.686;2023-02-14T05:08:10;4.68;;;1.75;;
63342;SDS011;49465;57.664;39.686;2023-02-14T05:10:48;5.07;;;1.67;;
63342;SDS011;49465;57.664;39.686;2023-02-14T05:13:22;3.40;;;1.77;;
63342;SDS011;49465;57.664;39.686;2023-02-14T05:16:01;4.30;;;1.88;;
63342;SDS011;49465;57.664;39.686;2023-02-14T05:18:32;3.22;;;1.52;;
63342;SDS011;49465;57.664;39.686;2023-02-14T05:21:01;3.55;;;1.60;;
63342;SDS011;49465;57.664;39.686;2023-02-14T05:23:35;5.82;;;1.70;;
63342;SDS011;49465;57.664;39.686;2023-02-14T05:26:06;6.45;;;1.80;;
63342;SDS011;49465;57.664;39.686;2023-02-14T05:28:36;4.20;;;1.50;;
63342;SDS011;49465;57.664;39.686;2023-02-14T05:33:42;3.47;;;1.40;;
63342;SDS011;49465;57.664;39.686;2023-02-14T05:36:11;4.43;;;1.90;;
63342;SDS011;49465;57.664;39.686;2023-02-14T05:38:43;3.95;;;1.77;;
63342;SDS011;49465;57.664;39.686;2023-02-14T05:41:21;3.95;;;1.45;;
63342;SDS011;49465;57.664;39.686;2023-02-14T05:43:54;5.03;;;2.00;;
63342;SDS011;49465;57.664;39.686;2023-02-14T05:46:22;4.88;;;2.20;;
63342;SDS011;49465;57.664;39.686;2023-02-14T05:48:57;2.58;;;1.40;;
63342;SDS011;49465;57.664;39.686;2023-02-14T05:51:23;5.10;;;1.80;;
63342;SDS011;49465;57.664;39.686;2023-02-14T05:53:56;4.75;;;1.63;;
63342;SDS011;49465;57.664;39.686;2023-02-14T05:56:24;3.17;;;1.40;;
63342;SDS011;49465;57.664;39.686;2023-02-14T05:58:55;3.80;;;1.50;;
63342;SDS011;49465;57.664;39.686;2023-02-14T06:01:24;3.05;;;1.40;;
63342;SDS011;49465;57.664;39.686;2023-02-14T06:03:58;4.05;;;1.65;;
63342;SDS011;49465;57.664;39.686;2023-02-14T06:06:32;3.33;;;1.70;;
63342;SDS011;49465;57.664;39.686;2023-02-14T06:09:04;5.82;;;2.00;;
63342;SDS011;49465;57.664;39.686;2023-02-14T06:11:33;3.28;;;1.90;;
63342;SDS011;49465;57.664;39.686;2023-02-14T06:14:05;4.95;;;1.67;;
63342;SDS011;49465;57.664;39.686;2023-02-14T06:16:34;3.28;;;1.50;;
63342;SDS011;49465;57.664;39.686;2023-02-14T06:19:03;4.93;;;1.60;;
63342;SDS011;49465;57.664;39.686;2023-02-14T06:21:35;3.47;;;1.45;;
63342;SDS011;49465;57.664;39.686;2023-02-14T06:24:07;2.95;;;1.30;;
63342;SDS011;49465;57.664;39.686;2023-02-14T06:26:39;3.05;;;1.42;;
63342;SDS011;49465;57.664;39.686;2023-02-14T06:29:11;4.07;;;1.30;;
63342;SDS011;49465;57.664;39.686;2023-02-14T06:31:40;5.35;;;1.58;;
63342;SDS011;49465;57.664;39.686;2023-02-14T06:34:17;2.28;;;1.10;;
63342;SDS011;49465;57.664;39.686;2023-02-14T06:36:49;3.30;;;1.33;;
63342;SDS011;49465;57.664;39.686;2023-02-14T06:39:19;3.42;;;1.30;;
63342;SDS011;49465;57.664;39.686;2023-02-14T06:41:48;4.38;;;1.42;;
63342;SDS011;49465;57.664;39.686;2023-02-14T06:44:18;4.55;;;1.50;;
63342;SDS011;49465;57.664;39.686;2023-02-14T06:46:50;2.25;;;1.10;;
63342;SDS011;49465;57.664;39.686;2023-02-14T06:49:24;3.63;;;1.65;;
63342;SDS011;49465;57.664;39.686;2023-02-14T06:51:53;3.05;;;1.27;;
63342;SDS011;49465;57.664;39.686;2023-02-14T06:54:26;2.72;;;1.10;;
63342;SDS011;49465;57.664;39.686;2023-02-14T06:56:55;2.35;;;1.10;;
63342;SDS011;49465;57.664;39.686;2023-02-14T06:59:27;2.40;;;1.30;;
63342;SDS011;49465;57.664;39.686;2023-02-14T07:02:00;3.75;;;1.73;;
63342;SDS011;49465;57.664;39.686;2023-02-14T07:04:37;4.65;;;1.95;;
63342;SDS011;49465;57.664;39.686;2023-02-14T07:07:06;2.53;;;1.60;;
63342;SDS011;49465;57.664;39.686;2023-02-14T07:09:36;2.80;;;1.58;;
63342;SDS011;49465;57.664;39.686;2023-02-14T07:12:08;4.75;;;2.05;;
63342;SDS011;49465;57.664;39.686;2023-02-14T07:14:39;4.00;;;2.00;;
63342;SDS011;49465;57.664;39.686;2023-02-14T07:17:09;3.28;;;1.70;;
63342;SDS011;49465;57.664;39.686;2023-02-14T07:19:38;4.25;;;1.70;;
63342;SDS011;49465;57.664;39.686;2023-02-14T07:22:07;2.28;;;1.30;;
63342;SDS011;49465;57.664;39.686;2023-02-14T07:24:38;2.90;;;1.40;;
63342;SDS011;49465;57.664;39.686;2023-02-14T07:27:06;3.45;;;1.45;;
63342;SDS011;49465;57.664;39.686;2023-02-14T07:29:34;3.00;;;1.30;;
63342;SDS011;49465;57.664;39.686;2023-02-14T07:32:01;2.40;;;1.48;;
63342;SDS011;49465;57.664;39.686;2023-02-14T07:34:28;4.15;;;1.70;;
63342;SDS011;49465;57.664;39.686;2023-02-14T07:36:54;3.55;;;1.65;;
63342;SDS011;49465;57.664;39.686;2023-02-14T07:39:22;3.67;;;1.30;;
63342;SDS011;49465;57.664;39.686;2023-02-14T07:41:48;2.53;;;1.30;;
63342;SDS011;49465;57.664;39.686;2023-02-14T07:44:15;3.17;;;1.40;;
63342;SDS011;49465;57.664;39.686;2023-02-14T07:46:48;3.92;;;1.40;;
63342;SDS011;49465;57.664;39.686;2023-02-14T07:49:18;4.18;;;1.65;;
63342;SDS011;49465;57.664;39.686;2023-02-14T07:51:44;3.15;;;1.20;;
63342;SDS011;49465;57.664;39.686;2023-02-14T07:54:14;2.72;;;1.20;;
63342;SDS011;49465;57.664;39.686;2023-02-14T07:56:43;3.35;;;1.20;;
63342;SDS011;49465;57.664;39.686;2023-02-14T07:59:12;2.85;;;1.30;;
63342;SDS011;49465;57.664;39.686;2023-02-14T08:01:41;3.97;;;1.50;;
63342;SDS011;49465;57.664;39.686;2023-02-14T08:04:07;2.38;;;1.30;;
63342;SDS011;49465;57.664;39.686;2023-02-14T08:06:34;3.25;;;1.60;;
63342;SDS011;49465;57.664;39.686;2023-02-14T08:09:00;4.07;;;1.88;;
63342;SDS011;49465;57.664;39.686;2023-02-14T08:11:29;4.65;;;2.20;;
63342;SDS011;49465;57.664;39.686;2023-02-14T08:14:14;3.08;;;1.25;;
63342;SDS011;49465;57.664;39.686;2023-02-14T08:16:45;2.80;;;1.23;;
63342;SDS011;49465;57.664;39.686;2023-02-14T08:19:11;2.50;;;1.05;;
63342;SDS011;49465;57.664;39.686;2023-02-14T08:21:38;2.83;;;1.00;;
63342;SDS011;49465;57.664;39.686;2023-02-14T08:24:04;3.15;;;1.08;;
63342;SDS011;49465;57.664;39.686;2023-02-14T08:26:43;2.83;;;1.33;;
63342;SDS011;49465;57.664;39.686;2023-02-14T08:29:09;2.42;;;1.10;;
63342;SDS011;49465;57.664;39.686;2023-02-14T08:31:36;2.67;;;1.10;;
63342;SDS011;49465;57.664;39.686;2023-02-14T08:34:03;3.75;;;1.40;;
63342;SDS011;49465;57.664;39.686;2023-02-14T08:36:32;2.78;;;1.10;;
63342;SDS011;49465;57.664;39.686;2023-02-14T08:38:59;2.78;;;1.23;;
63342;SDS011;49465;57.664;39.686;2023-02-14T08:41:26;1.90;;;1.10;;
63342;SDS011;49465;57.664;39.686;2023-02-14T08:43:53;2.35;;;1.10;;
63342;SDS011;49465;57.664;39.686;2023-02-14T08:46:19;3.47;;;1.20;;
63342;SDS011;49465;57.664;39.686;2023-02-14T08:48:51;3.22;;;1.30;;
63342;SDS011;49465;57.664;39.686;2023-02-14T08:51:19;2.20;;;1.08;;
63342;SDS011;49465;57.664;39.686;2023-02-14T08:53:48;1.98;;;1.08;;
63342;SDS011;49465;57.664;39.686;2023-02-14T08:56:19;3.40;;;1.10;;
63342;SDS011;49465;57.664;39.686;2023-02-14T08:58:52;4.22;;;1.85;;
63342;SDS011;49465;57.664;39.686;2023-02-14T09:01:21;2.63;;;1.00;;
63342;SDS011;49465;57.664;39.686;2023-02-14T09:03:48;2.97;;;1.23;;
63342;SDS011;49465;57.664;39.686;2023-02-14T09:06:25;1.92;;;0.85;;
63342;SDS011;49465;57.664;39.686;2023-02-14T09:08:52;3.42;;;1.02;;
63342;SDS011;49465;57.664;39.686;2023-02-14T09:11:22;3.15;;;1.27;;
63342;SDS011;49465;57.664;39.686;2023-02-14T09:13:51;3.72;;;1.65;;
63342;SDS011;49465;57.664;39.686;2023-02-14T09:16:18;2.80;;;1.70;;
63342;SDS011;49465;57.664;39.686;2023-02-14T09:18:50;2.78;;;1.20;;
63342;SDS011;49465;57.664;39.686;2023-02-14T09:21:20;2.70;;;1.70;;
63342;SDS011;49465;57.664;39.686;2023-02-14T09:23:50;2.90;;;1.70;;
63342;SDS011;49465;57.664;39.686;2023-02-14T09:26:20;3.60;;;1.65;;
63342;SDS011;49465;57.664;39.686;2023-02-14T09:28:47;3.60;;;1.40;;
63342;SDS011;49465;57.664;39.686;2023-02-14T09:31:17;4.22;;;1.80;;
63342;SDS011;49465;57.664;39.686;2023-02-14T09:33:49;2.92;;;1.30;;
63342;SDS011;49465;57.664;39.686;2023-02-14T09:36:16;4.00;;;1.40;;
63342;SDS011;49465;57.664;39.686;2023-02-14T09:39:01;3.50;;;1.48;;
63342;SDS011;49465;57.664;39.686;2023-02-14T09:44:20;3.45;;;1.50;;
63342;SDS011;49465;57.664;39.686;2023-02-14T09:46:53;2.60;;;1.02;;
63342;SDS011;49465;57.664;39.686;2023-02-14T09:49:30;3.45;;;1.00;;
63342;SDS011;49465;57.664;39.686;2023-02-14T09:52:01;2.85;;;1.10;;
63342;SDS011;49465;57.664;39.686;2023-02-14T09:54:29;1.00;;;0.90;;
63342;SDS011;49465;57.664;39.686;2023-02-14T09:57:06;2.08;;;1.00;;
63342;SDS011;49465;57.664;39.686;2023-02-14T09:59:51;3.20;;;1.13;;
63342;SDS011;49465;57.664;39.686;2023-02-14T10:08:09;3.33;;;1.23;;
63342;SDS011;49465;57.664;39.686;2023-02-14T10:14:17;2.75;;;1.20;;
63342;SDS011;49465;57.664;39.686;2023-02-14T10:16:49;2.63;;;1.10;;
63342;SDS011;49465;57.664;39.686;2023-02-14T10:22:02;3.58;;;0.93;;
63342;SDS011;49465;57.664;39.686;2023-02-14T10:27:32;1.73;;;0.82;;
63342;SDS011;49465;57.664;39.686;2023-02-14T10:30:14;1.65;;;0.90;;
63342;SDS011;49465;57.664;39.686;2023-02-14T10:33:33;1.55;;;0.90;;
63342;SDS011;49465;57.664;39.686;2023-02-14T10:55:51;2.83;;;1.00;;
63342;SDS011;49465;57.664;39.686;2023-02-14T10:58:37;1.98;;;1.05;;
63342;SDS011;49465;57.664;39.686;2023-02-14T11:01:10;1.63;;;0.95;;
63342;SDS011;49465;57.664;39.686;2023-02-14T11:03:39;2.63;;;0.80;;
63342;SDS011;49465;57.664;39.686;2023-02-14T11:06:18;1.45;;;0.80;;
63342;SDS011;49465;57.664;39.686;2023-02-14T11:08:44;2.35;;;1.00;;
63342;SDS011;49465;57.664;39.686;2023-02-14T11:14:19;1.42;;;0.88;;
63342;SDS011;49465;57.664;39.686;2023-02-14T11:16:51;1.75;;;0.90;;
63342;SDS011;49465;57.664;39.686;2023-02-14T11:19:28;1.05;;;0.80;;
63342;SDS011;49465;57.664;39.686;2023-02-14T11:22:03;2.63;;;0.85;;
63342;SDS011;49465;57.664;39.686;2023-02-14T11:24:51;1.50;;;0.88;;
63342;SDS011;49465;57.664;39.686;2023-02-14T11:27:38;1.75;;;0.90;;
63342;SDS011;49465;57.664;39.686;2023-02-14T11:32:55;2.05;;;0.90;;
63342;SDS011;49465;57.664;39.686;2023-02-14T11:35:25;2.05;;;0.90;;
63342;SDS011;49465;57.664;39.686;2023-02-14T11:40:30;1.58;;;1.10;;
63342;SDS011;49465;57.664;39.686;2023-02-14T11:45:43;2.45;;;1.20;;
63342;SDS011;49465;57.664;39.686;2023-02-14T11:48:23;1.55;;;0.70;;
63342;SDS011;49465;57.664;39.686;2023-02-14T11:53:46;2.13;;;0.90;;
63342;SDS011;49465;57.664;39.686;2023-02-14T11:56:20;1.63;;;0.90;;
63342;SDS011;49465;57.664;39.686;2023-02-14T11:58:58;2.10;;;0.93;;
63342;SDS011;49465;57.664;39.686;2023-02-14T12:01:30;1.33;;;0.80;;
63342;SDS011;49465;57.664;39.686;2023-02-14T12:04:03;1.63;;;0.80;;
63342;SDS011;49465;57.664;39.686;2023-02-14T12:06:39;1.52;;;0.80;;
63342;SDS011;49465;57.664;39.686;2023-02-14T12:09:15;2.65;;;1.00;;
63342;SDS011;49465;57.664;39.686;2023-02-14T12:14:34;2.40;;;0.93;;
63342;SDS011;49465;57.664;39.686;2023-02-14T12:17:14;2.25;;;0.80;;
63342;SDS011;49465;57.664;39.686;2023-02-14T12:22:45;2.15;;;0.80;;
63342;SDS011;49465;57.664;39.686;2023-02-14T12:28:36;2.20;;;1.40;;
63342;SDS011;49465;57.664;39.686;2023-02-14T12:31:15;3.33;;;1.45;;
63342;SDS011;49465;57.664;39.686;2023-02-14T12:33:45;2.33;;;1.38;;
63342;SDS011;49465;57.664;39.686;2023-02-14T12:47:24;2.15;;;1.10;;
63342;SDS011;49465;57.664;39.686;2023-02-14T12:53:10;1.38;;;0.80;;
63342;SDS011;49465;57.664;39.686;2023-02-14T13:15:08;1.58;;;0.68;;
63342;SDS011;49465;57.664;39.686;2023-02-14T13:21:03;0.68;;;0.60;;
63342;SDS011;49465;57.664;39.686;2023-02-14T13:23:47;1.38;;;0.68;;
63342;SDS011;49465;57.664;39.686;2023-02-14T13:26:20;0.90;;;0.70;;
63342;SDS011;49465;57.664;39.686;2023-02-14T13:29:03;1.80;;;1.00;;
63342;SDS011;49465;57.664;39.686;2023-02-14T13:31:37;0.90;;;0.70;;
63342;SDS011;49465;57.664;39.686;2023-02-14T13:36:56;1.17;;;0.65;;
63342;SDS011;49465;57.664;39.686;2023-02-14T13:39:35;1.70;;;0.70;;
63342;SDS011;49465;57.664;39.686;2023-02-14T13:42:08;1.30;;;0.80;;
63342;SDS011;49465;57.664;39.686;2023-02-14T13:44:45;0.70;;;0.57;;
63342;SDS011;49465;57.664;39.686;2023-02-14T13:47:24;2.25;;;0.85;;
63342;SDS011;49465;57.664;39.686;2023-02-14T13:49:58;0.88;;;0.70;;
63342;SDS011;49465;57.664;39.686;2023-02-14T13:52:48;2.13;;;0.73;;
63342;SDS011;49465;57.664;39.686;2023-02-14T13:55:19;1.15;;;0.70;;
63342;SDS011;49465;57.664;39.686;2023-02-14T13:58:14;1.00;;;0.60;;
63342;SDS011;49465;57.664;39.686;2023-02-14T14:00:46;1.05;;;0.77;;
63342;SDS011;49465;57.664;39.686;2023-02-14T14:06:01;0.77;;;0.55;;
63342;SDS011;49465;57.664;39.686;2023-02-14T14:11:00;1.90;;;0.98;;
63342;SDS011;49465;57.664;39.686;2023-02-14T14:21:37;4.07;;;2.17;;
63342;SDS011;49465;57.664;39.686;2023-02-14T14:26:58;1.42;;;0.85;;
63342;SDS011;49465;57.664;39.686;2023-02-14T14:34:53;2.13;;;1.08;;
63342;SDS011;49465;57.664;39.686;2023-02-14T14:37:35;2.72;;;1.13;;
63342;SDS011;49465;57.664;39.686;2023-02-14T14:40:56;2.15;;;1.30;;
63342;SDS011;49465;57.664;39.686;2023-02-14T14:46:10;1.00;;;0.80;;
63342;SDS011;49465;57.664;39.686;2023-02-14T14:48:44;1.73;;;1.10;;
63342;SDS011;49465;57.664;39.686;2023-02-14T14:51:25;1.63;;;1.00;;
63342;SDS011;49465;57.664;39.686;2023-02-14T14:54:00;2.15;;;1.30;;
63342;SDS011;49465;57.664;39.686;2023-02-14T14:56:36;1.73;;;1.33;;
63342;SDS011;49465;57.664;39.686;2023-02-14T15:01:51;1.30;;;0.93;;
63342;SDS011;49465;57.664;39.686;2023-02-14T15:04:30;2.72;;;1.40;;
63342;SDS011;49465;57.664;39.686;2023-02-14T15:10:02;3.05;;;1.05;;
63342;SDS011;49465;57.664;39.686;2023-02-14T15:12:44;1.25;;;0.90;;
63342;SDS011;49465;57.664;39.686;2023-02-14T15:15:29;2.47;;;1.00;;
63342;SDS011;49465;57.664;39.686;2023-02-14T15:18:02;1.58;;;0.80;;
63342;SDS011;49465;57.664;39.686;2023-02-14T15:20:30;0.82;;;0.60;;
63342;SDS011;49465;57.664;39.686;2023-02-14T15:22:57;0.80;;;0.70;;
63342;SDS011;49465;57.664;39.686;2023-02-14T15:25:31;1.23;;;0.70;;
63342;SDS011;49465;57.664;39.686;2023-02-14T15:28:13;1.40;;;0.63;;
63342;SDS011;49465;57.664;39.686;2023-02-14T15:31:02;0.93;;;0.70;;
63342;SDS011;49465;57.664;39.686;2023-02-14T15:33:38;1.40;;;0.77;;
63342;SDS011;49465;57.664;39.686;2023-02-14T15:36:07;0.82;;;0.75;;
63342;SDS011;49465;57.664;39.686;2023-02-14T15:38:44;0.60;;;0.60;;
63342;SDS011;49465;57.664;39.686;2023-02-14T15:41:13;1.05;;;0.80;;
63342;SDS011;49465;57.664;39.686;2023-02-14T15:43:46;1.65;;;0.50;;
63342;SDS011;49465;57.664;39.686;2023-02-14T15:48:53;1.75;;;0.70;;
63342;SDS011;49465;57.664;39.686;2023-02-14T15:51:25;1.10;;;0.70;;
63342;SDS011;49465;57.664;39.686;2023-02-14T15:53:55;0.85;;;0.60;;
63342;SDS011;49465;57.664;39.686;2023-02-14T15:56:28;1.33;;;0.80;;
63342;SDS011;49465;57.664;39.686;2023-02-14T15:59:31;1.10;;;0.65;;
63342;SDS011;49465;57.664;39.686;2023-02-14T16:04:31;1.25;;;0.60;;
63342;SDS011;49465;57.664;39.686;2023-02-14T16:09:47;1.40;;;0.50;;
63342;SDS011;49465;57.664;39.686;2023-02-14T16:12:28;0.80;;;0.70;;
63342;SDS011;49465;57.664;39.686;2023-02-14T16:17:43;1.15;;;0.73;;
63342;SDS011;49465;57.664;39.686;2023-02-14T16:20:20;1.55;;;0.90;;
63342;SDS011;49465;57.664;39.686;2023-02-14T16:25:50;1.20;;;1.10;;
63342;SDS011;49465;57.664;39.686;2023-02-14T16:28:22;0.60;;;0.60;;
63342;SDS011;49465;57.664;39.686;2023-02-14T16:30:55;1.23;;;0.60;;
63342;SDS011;49465;57.664;39.686;2023-02-14T16:33:28;0.60;;;0.60;;
63342;SDS011;49465;57.664;39.686;2023-02-14T16:38:50;2.08;;;0.60;;
63342;SDS011;49465;57.664;39.686;2023-02-14T16:41:32;0.90;;;0.50;;
63342;SDS011;49465;57.664;39.686;2023-02-14T16:44:05;1.48;;;0.77;;
63342;SDS011;49465;57.664;39.686;2023-02-14T16:46:31;0.70;;;0.60;;
63342;SDS011;49465;57.664;39.686;2023-02-14T16:49:00;1.23;;;0.80;;
63342;SDS011;49465;57.664;39.686;2023-02-14T16:51:28;2.38;;;0.73;;
63342;SDS011;49465;57.664;39.686;2023-02-14T16:53:58;1.25;;;0.60;;
63342;SDS011;49465;57.664;39.686;2023-02-14T16:56:39;1.33;;;0.80;;
63342;SDS011;49465;57.664;39.686;2023-02-14T16:59:15;2.05;;;1.25;;
63342;SDS011;49465;57.664;39.686;2023-02-14T17:01:47;3.35;;;1.00;;
63342;SDS011;49465;57.664;39.686;2023-02-14T17:04:16;1.80;;;1.05;;
63342;SDS011;49465;57.664;39.686;2023-02-14T17:06:48;1.35;;;0.70;;
63342;SDS011;49465;57.664;39.686;2023-02-14T17:09:20;2.10;;;0.90;;
63342;SDS011;49465;57.664;39.686;2023-02-14T17:11:55;2.88;;;1.40;;
63342;SDS011;49465;57.664;39.686;2023-02-14T17:14:26;2.10;;;1.00;;
63342;SDS011;49465;57.664;39.686;2023-02-14T17:16:57;2.38;;;0.85;;
63342;SDS011;49465;57.664;39.686;2023-02-14T17:19:25;2.15;;;1.20;;
63342;SDS011;49465;57.664;39.686;2023-02-14T17:21:55;1.90;;;0.60;;
63342;SDS011;49465;57.664;39.686;2023-02-14T17:24:22;1.65;;;0.73;;
63342;SDS011;49465;57.664;39.686;2023-02-14T17:26:52;1.95;;;0.90;;
63342;SDS011;49465;57.664;39.686;2023-02-14T17:29:18;3.20;;;1.00;;
63342;SDS011;49465;57.664;39.686;2023-02-14T17:31:50;1.90;;;0.90;;
63342;SDS011;49465;57.664;39.686;2023-02-14T17:34:19;2.28;;;0.77;;
63342;SDS011;49465;57.664;39.686;2023-02-14T17:36:45;1.73;;;0.80;;
63342;SDS011;49465;57.664;39.686;2023-02-14T17:39:12;1.50;;;0.70;;
63342;SDS011;49465;57.664;39.686;2023-02-14T17:41:39;2.42;;;0.80;;
63342;SDS011;49465;57.664;39.686;2023-02-14T17:44:07;2.55;;;0.88;;
63342;SDS011;49465;57.664;39.686;2023-02-14T17:46:34;1.92;;;0.80;;
63342;SDS011;49465;57.664;39.686;2023-02-14T17:49:00;1.95;;;0.73;;
63342;SDS011;49465;57.664;39.686;2023-02-14T17:51:27;1.73;;;0.73;;
63342;SDS011;49465;57.664;39.686;2023-02-14T17:53:54;2.67;;;0.80;;
63342;SDS011;49465;57.664;39.686;2023-02-14T17:56:22;2.35;;;0.85;;
63342;SDS011;49465;57.664;39.686;2023-02-14T17:58:50;1.67;;;0.80;;
63342;SDS011;49465;57.664;39.686;2023-02-14T18:01:21;1.55;;;0.90;;
63342;SDS011;49465;57.664;39.686;2023-02-14T18:03:52;2.00;;;0.98;;
63342;SDS011;49465;57.664;39.686;2023-02-14T18:06:19;2.05;;;0.85;;
63342;SDS011;49465;57.664;39.686;2023-02-14T18:08:46;1.23;;;0.70;;
63342;SDS011;49465;57.664;39.686;2023-02-14T18:11:22;1.85;;;0.75;;
63342;SDS011;49465;57.664;39.686;2023-02-14T18:13:54;2.03;;;0.75;;
63342;SDS011;49465;57.664;39.686;2023-02-14T18:16:23;1.27;;;0.77;;
63342;SDS011;49465;57.664;39.686;2023-02-14T18:18:49;1.77;;;0.80;;
63342;SDS011;49465;57.664;39.686;2023-02-14T18:21:18;4.00;;;0.98;;
63342;SDS011;49465;57.664;39.686;2023-02-14T18:23:48;2.03;;;0.80;;
63342;SDS011;49465;57.664;39.686;2023-02-14T18:26:18;2.58;;;0.90;;
63342;SDS011;49465;57.664;39.686;2023-02-14T18:28:44;3.65;;;1.13;;
63342;SDS011;49465;57.664;39.686;2023-02-14T18:31:18;1.88;;;0.80;;
63342;SDS011;49465;57.664;39.686;2023-02-14T18:33:48;2.20;;;0.80;;
63342;SDS011;49465;57.664;39.686;2023-02-14T18:36:16;2.10;;;0.75;;
63342;SDS011;49465;57.664;39.686;2023-02-14T18:38:51;3.95;;;0.90;;